Time,TemperatureF,DewpointF,PressureIn,WindDirection,WindDirectionDegrees,WindSpeedMPH,WindSpeedGustMPH,Humidity,HourlyPrecipIn,Conditions,Clouds,dailyrainin,SoftwareType,DateUTC
2013-08-31 00:02:00,81.7,67.9,29.82,SSW,207,3.0,10.0,63,0.00,,,0.00,Wunderground v.1.15,2013-08-31 05:02:00,
2013-08-31 00:12:00,81.3,68.0,29.82,South,181,3.0,10.0,64,0.00,,,0.00,Wunderground v.1.15,2013-08-31 05:12:00,
2013-08-31 00:22:00,81.1,67.8,29.82,South,181,2.0,10.0,64,0.00,,,0.00,Wunderground v.1.15,2013-08-31 05:22:00,
2013-08-31 00:32:00,80.9,67.6,29.82,South,186,2.0,10.0,64,0.00,,,0.00,Wunderground v.1.15,2013-08-31 05:32:00,
2013-08-31 00:42:00,80.5,67.6,29.82,South,190,2.0,10.0,65,0.00,,,0.00,Wunderground v.1.15,2013-08-31 05:42:00,
2013-08-31 00:52:00,80.2,67.8,29.82,SSW,193,3.0,10.0,66,0.00,,,0.00,Wunderground v.1.15,2013-08-31 05:52:00,
2013-08-31 01:02:00,80.0,67.6,29.82,South,184,3.0,3.0,66,0.00,,,0.00,Wunderground v.1.15,2013-08-31 06:02:00,
2013-08-31 01:12:00,79.6,67.7,29.82,SSE,166,2.0,10.0,67,0.00,,,0.00,Wunderground v.1.15,2013-08-31 06:12:00,
2013-08-31 01:22:00,79.1,67.6,29.82,SSW,193,2.0,10.0,68,0.00,,,0.00,Wunderground v.1.15,2013-08-31 06:22:00,
2013-08-31 01:32:00,78.8,67.8,29.82,SSE,162,2.0,10.0,69,0.00,,,0.00,Wunderground v.1.15,2013-08-31 06:32:00,
2013-08-31 01:42:00,78.3,67.3,29.82,SSE,156,2.0,10.0,69,0.00,,,0.00,Wunderground v.1.15,2013-08-31 06:42:00,
2013-08-31 01:52:00,77.8,67.2,29.82,South,176,2.0,10.0,70,0.00,,,0.00,Wunderground v.1.15,2013-08-31 06:52:00,
2013-08-31 02:02:00,77.3,67.2,29.82,SSE,150,2.0,10.0,71,0.00,,,0.00,Wunderground v.1.15,2013-08-31 07:02:00,
2013-08-31 02:12:00,76.6,66.9,29.81,SE,141,2.0,10.0,72,0.00,,,0.00,Wunderground v.1.15,2013-08-31 07:12:00,
2013-08-31 02:22:00,76.6,67.3,29.81,South,170,2.0,10.0,73,0.00,,,0.00,Wunderground v.1.15,2013-08-31 07:22:00,
2013-08-31 02:32:00,76.6,67.3,29.80,SSE,150,2.0,10.0,73,0.00,,,0.00,Wunderground v.1.15,2013-08-31 07:32:00,
2013-08-31 02:41:00,76.4,67.1,29.80,South,189,2.0,10.0,73,0.00,,,0.00,Wunderground v.1.15,2013-08-31 07:41:00,
2013-08-31 02:51:00,76.4,67.1,29.80,SSE,153,2.0,10.0,73,0.00,,,0.00,Wunderground v.1.15,2013-08-31 07:51:00,
2013-08-31 03:01:00,76.0,67.1,29.80,South,181,2.0,10.0,74,0.00,,,0.00,Wunderground v.1.15,2013-08-31 08:01:00,
2013-08-31 03:12:00,76.0,66.7,29.80,SSW,194,2.0,10.0,73,0.00,,,0.00,Wunderground v.1.15,2013-08-31 08:12:00,
2013-08-31 03:21:00,76.0,66.7,29.80,SSE,158,2.0,2.0,73,0.00,,,0.00,Wunderground v.1.15,2013-08-31 08:21:00,
2013-08-31 03:31:00,75.6,66.7,29.80,SSE,148,2.0,10.0,74,0.00,,,0.00,Wunderground v.1.15,2013-08-31 08:31:00,
2013-08-31 03:42:00,75.1,66.6,29.80,South,186,2.0,10.0,75,0.00,,,0.00,Wunderground v.1.15,2013-08-31 08:42:00,
2013-08-31 03:52:00,75.2,66.3,29.80,SSE,158,2.0,10.0,74,0.00,,,0.00,Wunderground v.1.15,2013-08-31 08:52:00,
2013-08-31 04:02:00,75.3,66.4,29.80,SE,144,2.0,10.0,74,0.00,,,0.00,Wunderground v.1.15,2013-08-31 09:02:00,
2013-08-31 04:12:00,74.8,66.7,29.80,SE,138,1.0,10.0,76,0.00,,,0.00,Wunderground v.1.15,2013-08-31 09:12:00,
2013-08-31 04:22:00,74.6,66.5,29.80,SSE,159,2.0,10.0,76,0.00,,,0.00,Wunderground v.1.15,2013-08-31 09:22:00,
2013-08-31 04:32:00,74.5,66.4,29.79,SSE,165,2.0,10.0,76,0.00,,,0.00,Wunderground v.1.15,2013-08-31 09:32:00,
2013-08-31 04:42:00,74.0,66.3,29.80,SE,142,2.0,2.0,77,0.00,,,0.00,Wunderground v.1.15,2013-08-31 09:42:00,
2013-08-31 04:52:00,73.3,66.0,29.80,SE,143,2.0,10.0,78,0.00,,,0.00,Wunderground v.1.15,2013-08-31 09:52:00,
2013-08-31 05:02:00,73.5,65.8,29.80,South,190,2.0,10.0,77,0.00,,,0.00,Wunderground v.1.15,2013-08-31 10:02:00,
2013-08-31 05:12:00,73.7,66.0,29.80,SSW,198,2.0,10.0,77,0.00,,,0.00,Wunderground v.1.15,2013-08-31 10:12:00,
2013-08-31 05:22:00,73.8,66.1,29.80,SSW,195,2.0,10.0,77,0.00,,,0.00,Wunderground v.1.15,2013-08-31 10:22:00,
2013-08-31 05:32:00,73.5,66.2,29.80,SSW,211,3.0,10.0,78,0.00,,,0.00,Wunderground v.1.15,2013-08-31 10:32:00,
2013-08-31 05:42:00,73.2,66.3,29.80,SSE,153,2.0,10.0,79,0.00,,,0.00,Wunderground v.1.15,2013-08-31 10:42:00,
2013-08-31 05:52:00,73.3,66.0,29.80,South,177,4.0,4.0,78,0.00,,,0.00,Wunderground v.1.15,2013-08-31 10:52:00,
2013-08-31 06:02:00,73.1,66.2,29.80,South,188,3.0,3.0,79,0.00,,,0.00,Wunderground v.1.15,2013-08-31 11:02:00,
2013-08-31 06:12:00,72.7,66.2,29.81,SW,224,3.0,3.0,80,0.00,,,0.00,Wunderground v.1.15,2013-08-31 11:12:00,
2013-08-31 06:22:00,72.3,65.8,29.84,NW,307,4.0,11.0,80,0.00,,,0.00,Wunderground v.1.15,2013-08-31 11:22:00,
2013-08-31 06:32:00,74.8,66.3,29.84,WNW,295,7.0,7.0,75,0.00,,,0.00,Wunderground v.1.15,2013-08-31 11:32:00,
2013-08-31 06:42:00,74.5,66.1,29.84,NNW,338,3.0,3.0,75,0.00,,,0.00,Wunderground v.1.15,2013-08-31 11:42:00,
2013-08-31 06:51:00,73.7,66.0,29.83,ESE,122,1.0,10.0,77,0.00,,,0.00,Wunderground v.1.15,2013-08-31 11:51:00,
2013-08-31 07:01:00,73.0,65.7,29.83,ESE,113,0.0,10.0,78,0.00,,,0.00,Wunderground v.1.15,2013-08-31 12:01:00,
2013-08-31 07:11:00,72.9,65.6,29.83,ESE,112,1.0,10.0,78,0.00,,,0.00,Wunderground v.1.15,2013-08-31 12:11:00,
2013-08-31 07:21:00,72.7,65.8,29.83,ESE,111,0.0,10.0,79,0.00,,,0.00,Wunderground v.1.15,2013-08-31 12:21:00,
2013-08-31 07:32:00,73.6,65.9,29.83,East,96,0.0,10.0,77,0.00,,,0.00,Wunderground v.1.15,2013-08-31 12:32:00,
2013-08-31 07:42:00,73.8,66.1,29.83,NNW,333,1.0,10.0,77,0.00,,,0.00,Wunderground v.1.15,2013-08-31 12:42:00,
2013-08-31 07:52:00,74.1,66.8,29.84,NNW,328,1.0,10.0,78,0.00,,,0.00,Wunderground v.1.15,2013-08-31 12:52:00,
2013-08-31 08:02:00,75.0,67.3,29.83,NNW,345,1.0,10.0,77,0.00,,,0.00,Wunderground v.1.15,2013-08-31 13:02:00,
2013-08-31 08:12:00,76.4,67.1,29.83,NE,54,2.0,10.0,73,0.00,,,0.00,Wunderground v.1.15,2013-08-31 13:12:00,
2013-08-31 08:22:00,77.2,67.5,29.83,NNE,32,2.0,10.0,72,0.00,,,0.00,Wunderground v.1.15,2013-08-31 13:22:00,
2013-08-31 08:32:00,77.7,67.5,29.83,NNE,25,3.0,10.0,71,0.00,,,0.00,Wunderground v.1.15,2013-08-31 13:32:00,
2013-08-31 08:42:00,78.1,67.1,29.83,NE,39,3.0,3.0,69,0.00,,,0.00,Wunderground v.1.15,2013-08-31 13:42:00,
2013-08-31 08:52:00,79.3,68.2,29.83,NE,47,2.0,2.0,69,0.00,,,0.00,Wunderground v.1.15,2013-08-31 13:52:00,
2013-08-31 09:02:00,80.2,67.8,29.83,ENE,67,2.0,10.0,66,0.00,,,0.00,Wunderground v.1.15,2013-08-31 14:02:00,
2013-08-31 09:12:00,80.7,68.3,29.82,NE,41,2.0,2.0,66,0.00,,,0.00,Wunderground v.1.15,2013-08-31 14:12:00,
2013-08-31 09:22:00,81.1,68.2,29.82,East,92,2.0,2.0,65,0.00,,,0.00,Wunderground v.1.15,2013-08-31 14:22:00,
2013-08-31 09:32:00,82.6,68.7,29.82,East,101,2.0,10.0,63,0.00,,,0.00,Wunderground v.1.15,2013-08-31 14:32:00,
2013-08-31 09:42:00,83.7,67.8,29.82,ESE,116,3.0,10.0,59,0.00,,,0.00,Wunderground v.1.15,2013-08-31 14:42:00,
2013-08-31 09:52:00,84.8,68.9,29.81,SE,129,4.0,10.0,59,0.00,,,0.00,Wunderground v.1.15,2013-08-31 14:52:00,
2013-08-31 10:02:00,85.2,68.8,29.81,SE,125,6.0,10.0,58,0.00,,,0.00,Wunderground v.1.15,2013-08-31 15:02:00,
2013-08-31 10:12:00,85.1,69.7,29.81,SSE,154,7.0,10.0,60,0.00,,,0.00,Wunderground v.1.15,2013-08-31 15:12:00,
2013-08-31 10:22:00,85.4,69.4,29.81,ESE,121,7.0,7.0,59,0.00,,,0.00,Wunderground v.1.15,2013-08-31 15:22:00,
2013-08-31 10:32:00,86.0,68.5,29.81,ESE,108,6.0,10.0,56,0.00,,,0.00,Wunderground v.1.15,2013-08-31 15:32:00,
2013-08-31 10:41:00,86.2,69.7,29.80,ESE,118,6.0,10.0,58,0.00,,,0.00,Wunderground v.1.15,2013-08-31 15:41:00,
2013-08-31 10:51:00,86.3,69.3,29.80,ESE,113,7.0,10.0,57,0.00,,,0.00,Wunderground v.1.15,2013-08-31 15:51:00,
2013-08-31 11:01:00,87.2,70.6,29.80,ESE,108,5.0,10.0,58,0.00,,,0.00,Wunderground v.1.15,2013-08-31 16:01:00,
2013-08-31 11:12:00,88.3,69.5,29.80,ESE,107,7.0,7.0,54,0.00,,,0.00,Wunderground v.1.15,2013-08-31 16:12:00,
2013-08-31 11:22:00,89.5,69.0,29.80,SE,132,8.0,8.0,51,0.00,,,0.00,Wunderground v.1.15,2013-08-31 16:22:00,
2013-08-31 11:31:00,90.6,69.4,29.80,ESE,122,8.0,10.0,50,0.00,,,0.00,Wunderground v.1.15,2013-08-31 16:31:00,
2013-08-31 11:42:00,90.1,69.0,29.79,SE,138,7.0,7.0,50,0.00,,,0.00,Wunderground v.1.15,2013-08-31 16:42:00,
2013-08-31 11:52:00,91.3,68.9,29.79,ESE,108,8.0,10.0,48,0.00,,,0.00,Wunderground v.1.15,2013-08-31 16:52:00,
2013-08-31 12:02:00,92.0,68.3,29.79,SE,125,8.0,10.0,46,0.00,,,0.00,Wunderground v.1.15,2013-08-31 17:02:00,
2013-08-31 12:12:00,92.3,67.9,29.78,East,98,9.0,11.0,45,0.00,,,0.00,Wunderground v.1.15,2013-08-31 17:12:00,
2013-08-31 12:22:00,92.5,69.3,29.78,ESE,112,10.0,10.0,47,0.00,,,0.00,Wunderground v.1.15,2013-08-31 17:22:00,
2013-08-31 12:32:00,93.5,69.6,29.78,ESE,122,8.0,10.0,46,0.00,,,0.00,Wunderground v.1.15,2013-08-31 17:32:00,
2013-08-31 12:42:00,94.1,68.2,29.78,SE,131,8.0,10.0,43,0.00,,,0.00,Wunderground v.1.15,2013-08-31 17:42:00,
2013-08-31 12:52:00,94.0,67.4,29.78,SE,143,10.0,10.0,42,0.00,,,0.00,Wunderground v.1.15,2013-08-31 17:52:00,
2013-08-31 13:02:00,94.5,66.4,29.78,ESE,122,9.0,9.0,40,0.00,,,0.00,Wunderground v.1.15,2013-08-31 18:02:00,
2013-08-31 13:12:00,95.0,69.0,29.77,East,80,8.0,8.0,43,0.00,,,0.00,Wunderground v.1.15,2013-08-31 18:12:00,
2013-08-31 13:22:00,95.8,67.6,29.77,ESE,114,7.0,11.0,40,0.00,,,0.00,Wunderground v.1.15,2013-08-31 18:22:00,
2013-08-31 13:32:00,96.4,66.7,29.77,SSE,156,8.0,8.0,38,0.00,,,0.00,Wunderground v.1.15,2013-08-31 18:32:00,
2013-08-31 13:42:00,97.3,67.4,29.77,ESE,119,7.0,7.0,38,0.00,,,0.00,Wunderground v.1.15,2013-08-31 18:42:00,
2013-08-31 13:51:00,98.2,68.2,29.77,ESE,121,6.0,11.0,38,0.00,,,0.00,Wunderground v.1.15,2013-08-31 18:51:00,
2013-08-31 14:02:00,98.5,67.7,29.77,SSW,195,7.0,10.0,37,0.00,,,0.00,Wunderground v.1.15,2013-08-31 19:02:00,
2013-08-31 14:12:00,99.0,67.4,29.77,South,181,6.0,10.0,36,0.00,,,0.00,Wunderground v.1.15,2013-08-31 19:12:00,
2013-08-31 14:21:00,99.5,68.6,29.76,SE,131,6.0,6.0,37,0.00,,,0.00,Wunderground v.1.15,2013-08-31 19:21:00,
2013-08-31 14:31:00,100.4,68.6,29.76,South,174,5.0,10.0,36,0.00,,,0.00,Wunderground v.1.15,2013-08-31 19:31:00,
2013-08-31 14:41:00,100.5,66.2,29.76,ESE,102,4.0,10.0,33,0.00,,,0.00,Wunderground v.1.15,2013-08-31 19:41:00,
2013-08-31 14:51:00,100.9,67.4,29.75,South,172,5.0,10.0,34,0.00,,,0.00,Wunderground v.1.15,2013-08-31 19:51:00,
2013-08-31 15:02:00,101.4,65.1,29.75,South,174,5.0,10.0,31,0.00,,,0.00,Wunderground v.1.15,2013-08-31 20:02:00,
2013-08-31 15:12:00,101.6,66.2,29.75,SSE,152,5.0,10.0,32,0.00,,,0.00,Wunderground v.1.15,2013-08-31 20:12:00,
2013-08-31 15:22:00,101.1,66.7,29.75,SSW,211,6.0,10.0,33,0.00,,,0.00,Wunderground v.1.15,2013-08-31 20:22:00,
2013-08-31 15:32:00,101.5,66.1,29.74,SW,214,7.0,7.0,32,0.00,,,0.00,Wunderground v.1.15,2013-08-31 20:32:00,
2013-08-31 15:42:00,102.5,66.1,29.74,SSW,204,4.0,10.0,31,0.00,,,0.00,Wunderground v.1.15,2013-08-31 20:42:00,
2013-08-31 15:52:00,101.9,65.6,29.74,SSW,211,5.0,10.0,31,0.00,,,0.00,Wunderground v.1.15,2013-08-31 20:52:00,
2013-08-31 16:02:00,102.3,65.0,29.74,SSW,211,6.0,10.0,30,0.00,,,0.00,Wunderground v.1.15,2013-08-31 21:02:00,
2013-08-31 16:12:00,101.7,63.5,29.74,WSW,252,6.0,6.0,29,0.00,,,0.00,Wunderground v.1.15,2013-08-31 21:12:00,
2013-08-31 16:22:00,101.3,63.2,29.73,SW,236,5.0,5.0,29,0.00,,,0.00,Wunderground v.1.15,2013-08-31 21:22:00,
2013-08-31 16:32:00,102.1,63.8,29.73,SSE,155,5.0,5.0,29,0.00,,,0.00,Wunderground v.1.15,2013-08-31 21:32:00,
2013-08-31 16:42:00,102.6,63.3,29.73,WSW,256,5.0,10.0,28,0.00,,,0.00,Wunderground v.1.15,2013-08-31 21:42:00,
2013-08-31 16:52:00,102.1,62.8,29.73,SSW,207,6.0,6.0,28,0.00,,,0.00,Wunderground v.1.15,2013-08-31 21:52:00,
2013-08-31 17:02:00,102.6,64.3,29.73,South,185,4.0,10.0,29,0.00,,,0.00,Wunderground v.1.15,2013-08-31 22:02:00,
2013-08-31 17:12:00,102.5,65.2,29.72,WSW,244,4.0,4.0,30,0.00,,,0.00,Wunderground v.1.15,2013-08-31 22:12:00,
2013-08-31 17:22:00,102.3,64.0,29.72,SSW,208,5.0,10.0,29,0.00,,,0.00,Wunderground v.1.15,2013-08-31 22:22:00,
2013-08-31 17:32:00,102.3,65.0,29.72,South,174,5.0,10.0,30,0.00,,,0.00,Wunderground v.1.15,2013-08-31 22:32:00,
2013-08-31 17:41:00,103.0,66.5,29.72,SSW,195,3.0,10.0,31,0.00,,,0.00,Wunderground v.1.15,2013-08-31 22:41:00,
2013-08-31 17:51:00,101.9,64.6,29.71,SW,233,4.0,4.0,30,0.00,,,0.00,Wunderground v.1.15,2013-08-31 22:51:00,
2013-08-31 18:01:00,102.0,64.7,29.71,SSW,211,4.0,4.0,30,0.00,,,0.00,Wunderground v.1.15,2013-08-31 23:01:00,
2013-08-31 18:12:00,102.2,65.8,29.71,SE,143,3.0,3.0,31,0.00,,,0.00,Wunderground v.1.15,2013-08-31 23:12:00,
2013-08-31 18:21:00,102.7,67.2,29.71,SSE,152,2.0,10.0,32,0.00,,,0.00,Wunderground v.1.15,2013-08-31 23:21:00,
2013-08-31 18:31:00,102.7,68.1,29.71,SSE,162,1.0,1.0,33,0.00,,,0.00,Wunderground v.1.15,2013-08-31 23:31:00,
2013-08-31 18:42:00,102.8,67.3,29.71,SSW,198,2.0,10.0,32,0.00,,,0.00,Wunderground v.1.15,2013-08-31 23:42:00,
2013-08-31 18:52:00,100.6,68.0,29.71,SW,231,2.0,2.0,35,0.00,,,0.00,Wunderground v.1.15,2013-08-31 23:52:00,
2013-08-31 19:02:00,100.8,67.3,29.71,SW,226,1.0,10.0,34,0.00,,,0.00,Wunderground v.1.15,2013-09-01 00:02:00,
2013-08-31 19:12:00,101.5,67.9,29.70,SW,226,1.0,1.0,34,0.00,,,0.00,Wunderground v.1.15,2013-09-01 00:12:00,
2013-08-31 19:22:00,99.8,66.4,29.71,SSE,149,0.0,10.0,34,0.00,,,0.00,Wunderground v.1.15,2013-09-01 00:22:00,
2013-08-31 19:32:00,98.3,65.1,29.71,SSE,151,0.0,10.0,34,0.00,,,0.00,Wunderground v.1.15,2013-09-01 00:32:00,
2013-08-31 19:42:00,96.7,65.4,29.71,ESE,113,0.0,10.0,36,0.00,,,0.00,Wunderground v.1.15,2013-09-01 00:42:00,
2013-08-31 19:52:00,94.0,66.7,29.71,SE,129,2.0,10.0,41,0.00,,,0.00,Wunderground v.1.15,2013-09-01 00:52:00,
2013-08-31 20:02:00,93.0,65.8,29.71,ESE,108,1.0,10.0,41,0.00,,,0.00,Wunderground v.1.15,2013-09-01 01:02:00,
2013-08-31 20:12:00,92.1,65.7,29.71,ESE,114,2.0,10.0,42,0.00,,,0.00,Wunderground v.1.15,2013-09-01 01:12:00,
2013-08-31 20:22:00,90.8,67.2,29.71,ESE,120,3.0,3.0,46,0.00,,,0.00,Wunderground v.1.15,2013-09-01 01:22:00,
2013-08-31 20:32:00,89.9,65.1,29.72,East,87,3.0,10.0,44,0.00,,,0.00,Wunderground v.1.15,2013-09-01 01:32:00,
2013-08-31 20:42:00,89.9,65.7,29.72,ESE,104,4.0,4.0,45,0.00,,,0.00,Wunderground v.1.15,2013-09-01 01:42:00,
2013-08-31 20:51:00,89.1,66.2,29.73,ESE,108,4.0,10.0,47,0.00,,,0.00,Wunderground v.1.15,2013-09-01 01:51:00,
2013-08-31 21:01:00,87.9,66.9,29.73,ESE,108,4.0,10.0,50,0.00,,,0.00,Wunderground v.1.15,2013-09-01 02:01:00,
2013-08-31 21:12:00,86.9,67.2,29.73,ESE,115,4.0,4.0,52,0.00,,,0.00,Wunderground v.1.15,2013-09-01 02:12:00,
2013-08-31 21:21:00,86.3,67.2,29.73,ESE,118,4.0,10.0,53,0.00,,,0.00,Wunderground v.1.15,2013-09-01 02:21:00,
2013-08-31 21:31:00,84.5,67.6,29.73,ESE,122,4.0,4.0,57,0.00,,,0.00,Wunderground v.1.15,2013-09-01 02:31:00,
2013-08-31 21:41:00,83.7,66.8,29.74,SE,136,3.0,3.0,57,0.00,,,0.00,Wunderground v.1.15,2013-09-01 02:41:00,
2013-08-31 21:52:00,83.6,66.8,29.74,SE,128,3.0,3.0,57,0.00,,,0.00,Wunderground v.1.15,2013-09-01 02:52:00,
2013-08-31 22:02:00,83.0,66.2,29.74,SE,131,3.0,10.0,57,0.00,,,0.00,Wunderground v.1.15,2013-09-01 03:02:00,
2013-08-31 22:12:00,82.7,66.4,29.74,SE,139,3.0,3.0,58,0.00,,,0.00,Wunderground v.1.15,2013-09-01 03:12:00,
2013-08-31 22:22:00,83.0,66.2,29.74,SSE,161,1.0,10.0,57,0.00,,,0.00,Wunderground v.1.15,2013-09-01 03:22:00,
2013-08-31 22:32:00,83.2,66.4,29.74,SE,135,2.0,2.0,57,0.00,,,0.00,Wunderground v.1.15,2013-09-01 03:32:00,
2013-08-31 22:42:00,83.0,66.2,29.74,SSW,194,3.0,10.0,57,0.00,,,0.00,Wunderground v.1.15,2013-09-01 03:42:00,
2013-08-31 22:52:00,83.2,66.4,29.74,SSE,159,3.0,10.0,57,0.00,,,0.00,Wunderground v.1.15,2013-09-01 03:52:00,
2013-08-31 23:02:00,83.1,66.3,29.73,South,183,3.0,10.0,57,0.00,,,0.00,Wunderground v.1.15,2013-09-01 04:02:00,
2013-08-31 23:12:00,83.2,66.4,29.73,SSW,196,4.0,10.0,57,0.00,,,0.00,Wunderground v.1.15,2013-09-01 04:12:00,
2013-08-31 23:22:00,83.3,66.5,29.73,SSE,153,4.0,4.0,57,0.00,,,0.00,Wunderground v.1.15,2013-09-01 04:22:00,
2013-08-31 23:32:00,83.1,66.3,29.73,SSW,195,4.0,10.0,57,0.00,,,0.00,Wunderground v.1.15,2013-09-01 04:32:00,
2013-08-31 23:42:00,83.1,66.3,29.74,SSW,201,4.0,10.0,57,0.00,,,0.00,Wunderground v.1.15,2013-09-01 04:42:00,
2013-08-31 23:52:00,82.6,66.3,29.74,South,177,4.0,10.0,58,0.00,,,0.00,Wunderground v.1.15,2013-09-01 04:52:00,